TNCMTKPK

Guest
Details From TNCM - St Maarten - Princess Juliana Intl
To TKPK - St. Kitts/Bradshaw Intl
Flight Number -
Tags decoded
Created
Modified
Stats Distance 49 nm / 91 km
Max Altitude 0 ft / 0 m
Waypoints 2
Social Downloads 0
Likes 0
Share VATSIM

Download

Looking for another format? Having issues loading an existing format? Contact us
Advertisement - Login to hide

Notes

Requested: TNCM TKPK

Route

TNCM TKPK

ID Type Via Altitude (ft/m) Position (lat/lon) Dist (leg/tot) Name
O TNCM APT - 0 / 0 18.04089 / -63.10897 - / 0 nm St Maarten - Princess Juliana Intl
O TKPK APT - 0 / 0 17.31119 / -62.71867 49 / 49 nm St. Kitts/Bradshaw Intl

Altitude Profile

Advertisement - Login to hide

TNCM

Details ICAO TNCM (SXM)
Name Princess Juliana Int'l
Region Caribbean Netherlands, Aruba, Curaçao, Sint Maarten
Timezone Unknown
Stats Elevation 12 ft / 4 m (AMSL)
Location 18.040900° -63.108900°
Runways 1
Magnetic Variation 14.344° W

METAR

TNCM 201000Z 10009KT 020V140 9999 FEW017 28/23 Q1017 A3003 NOSIG

Decode

TAF

TAF TAF TNCM 200520Z 2006/2106 08011KT P6SM VCSH SCT018 SCT040 FM201450 11014KT P6SM SCT024 FM202300 09009KT P6SM FEW018 SCT035

Decode

Departure Runways

ID Width Length Bearing (true/mag) Surface Threshold Overrun Markings Lighting
10 148 ft / 45 m 7,553 ft / 2,302 m 81.44° / 95.78° ASPHALT 331 ft / 101 m 164 ft / 50 m PREC-APP EDGE THRESHOLD REIL-OMNI
28 148 ft / 45 m 7,553 ft / 2,302 m 261.45° / 275.79° ASPHALT 0 ft / 0 m 200 ft / 61 m APP EDGE THRESHOLD

TKPK

Details ICAO TKPK (SKB)
Name St. Kitts/Bradshaw Intl
Region Saint Kitts and Nevis
Timezone America/St_Kitts (UTC-4.0)
Stats Elevation 169 ft / 52 m (AMSL)
Location 17.311200° -62.718700°
Runways 1
Magnetic Variation 14.470° W

METAR

TKPK 201000Z 07010KT 9999 FEW016 27/23 Q1017

Decode

TAF

TAF TKPK 200520Z 2006/2106 06010KT P6SM -RA SCT018 BKN040 BKN080 FM201450 08014KT P6SM SCT022 SCT080 FM202300 07010KT P6SM FEW018 SCT040 AMD NOT SKED TIL 201100

Decode

Destination Runways

ID Width Length Bearing (true/mag) Surface Threshold Overrun Markings Lighting
07 148 ft / 45 m 7,620 ft / 2,323 m 56.95° / 71.42° ASPHALT 200 ft / 61 m 0 ft / 0 m APP EDGE THRESHOLD
25 148 ft / 45 m 7,620 ft / 2,323 m 236.95° / 251.42° ASPHALT 0 ft / 0 m 0 ft / 0 m APP EDGE THRESHOLD REIL-OMNI

Popular Alternatives